Time;durP1;ratioP1;P1;durP2;ratioP2;P2;SDS_P1;SDS_P2;PMS_P1;PMS_P2;Temp;Humidity;BMP_temperature;BMP_pressure;BME280_temperature;BME280_humidity;BME280_pressure;Samples;Min_cycle;Max_cycle;Signal;HPM_P1;HPM_P2
2024/02/27 00:02:03;;;;;;;3.95;1.88;;;8.50;99.90;;;;;;4973406;28;20094;-67
2024/02/27 00:04:29;;;;;;;5.00;2.13;;;8.50;99.90;;;;;;4970974;28;20170;-66
2024/02/27 00:06:55;;;;;;;4.55;1.98;;;8.50;99.90;;;;;;4982151;28;20077;-66
2024/02/27 00:09:24;;;;;;;3.63;1.95;;;8.50;99.90;;;;;;4970594;28;20023;-66
2024/02/27 00:11:50;;;;;;;4.43;1.75;;;8.50;99.90;;;;;;4974294;28;20033;-66
2024/02/27 00:14:16;;;;;;;1.15;0.93;;;8.40;99.90;;;;;;4969549;28;20117;-67
2024/02/27 00:16:42;;;;;;;1.75;1.10;;;8.30;99.90;;;;;;4988747;28;20073;-67
2024/02/27 00:19:08;;;;;;;2.38;1.83;;;8.40;99.90;;;;;;4985632;28;20492;-67
2024/02/27 00:44:16;;;;;;;5.30;1.65;;;8.40;99.90;;;;;;4970374;28;20053;-66
2024/02/27 00:46:42;;;;;;;3.70;1.80;;;8.30;99.90;;;;;;4973999;28;20496;-66
2024/02/27 00:49:08;;;;;;;3.47;1.50;;;8.40;99.90;;;;;;4984563;28;20040;-66
2024/02/27 00:51:34;;;;;;;4.30;2.17;;;8.40;99.90;;;;;;4974146;28;20097;-66
2024/02/27 00:54:00;;;;;;;4.38;1.85;;;8.40;99.90;;;;;;4972989;28;20031;-66
2024/02/27 00:56:25;;;;;;;4.28;1.75;;;8.40;99.90;;;;;;4973927;28;20065;-66
2024/02/27 00:58:51;;;;;;;5.95;2.47;;;8.40;99.90;;;;;;4968818;28;20027;-66
2024/02/27 01:01:17;;;;;;;6.03;1.98;;;8.40;99.90;;;;;;4972134;28;20025;-66
2024/02/27 01:03:43;;;;;;;8.68;2.40;;;8.30;99.90;;;;;;4969948;28;20038;-66
2024/02/27 01:06:10;;;;;;;3.30;1.65;;;8.30;99.90;;;;;;4975625;28;20402;-67
2024/02/27 01:08:36;;;;;;;5.85;2.58;;;8.30;99.90;;;;;;4985704;28;20033;-67
2024/02/27 01:11:02;;;;;;;10.18;3.60;;;8.30;99.90;;;;;;4988484;28;20027;-66
2024/02/27 01:13:27;;;;;;;6.50;2.42;;;8.40;99.90;;;;;;4983511;28;20066;-67
2024/02/27 01:15:53;;;;;;;5.32;2.10;;;8.40;99.90;;;;;;4973046;28;20038;-66
2024/02/27 01:18:19;;;;;;;2.92;1.92;;;8.40;99.90;;;;;;4998109;23;20054;-68
2024/02/27 01:32:45;;;;;;;6.93;2.47;;;8.40;99.90;;;;;;5000676;28;20042;-68
2024/02/27 01:35:11;;;;;;;4.75;2.20;;;8.40;99.90;;;;;;4995543;28;20061;-69
2024/02/27 01:37:36;;;;;;;4.82;2.72;;;8.30;99.90;;;;;;5003356;28;20042;-69
2024/02/27 01:40:04;;;;;;;7.22;3.15;;;8.30;99.90;;;;;;4992525;28;20109;-69
2024/02/27 01:42:30;;;;;;;5.32;3.10;;;8.30;99.90;;;;;;4986867;28;20126;-69
2024/02/27 01:44:55;;;;;;;6.25;2.72;;;8.30;99.90;;;;;;5006870;28;20109;-69
2024/02/27 01:47:23;;;;;;;6.82;3.80;;;8.30;99.90;;;;;;5002266;28;20085;-68
2024/02/27 01:49:49;;;;;;;3.53;2.72;;;8.30;99.90;;;;;;5015881;28;20030;-68
2024/02/27 01:52:15;;;;;;;5.45;3.40;;;8.30;99.90;;;;;;5015220;28;20030;-67
2024/02/27 01:54:48;;;;;;;6.60;3.30;;;8.20;99.90;;;;;;5017811;28;20025;-69
2024/02/27 01:57:15;;;;;;;8.10;3.60;;;8.20;99.90;;;;;;5019543;28;20035;-68
2024/02/27 01:59:42;;;;;;;4.72;3.28;;;8.10;99.90;;;;;;5005476;28;20026;-67
2024/02/27 02:02:08;;;;;;;7.97;3.63;;;8.10;99.90;;;;;;5004298;28;20046;-67
2024/02/27 02:04:35;;;;;;;11.68;3.55;;;8.10;99.90;;;;;;5005659;28;20103;-68
2024/02/27 02:07:02;;;;;;;7.57;3.53;;;8.10;99.90;;;;;;4985849;28;20063;-68
2024/02/27 02:09:28;;;;;;;9.93;4.45;;;8.00;99.90;;;;;;4982825;28;20027;-68
2024/02/27 02:11:54;;;;;;;12.82;4.15;;;8.00;99.90;;;;;;4991557;28;20030;-68
2024/02/27 02:14:20;;;;;;;8.63;3.45;;;8.00;99.90;;;;;;4984681;28;20031;-68
2024/02/27 02:16:46;;;;;;;11.20;5.20;;;7.90;99.90;;;;;;5006502;28;20077;-68
2024/02/27 02:19:13;;;;;;;6.90;4.13;;;7.90;99.90;;;;;;5005172;28;20121;-67
2024/02/27 02:21:38;;;;;;;9.73;5.10;;;7.90;99.90;;;;;;5009305;28;20129;-68
2024/02/27 02:24:06;;;;;;;8.13;4.55;;;8.00;99.90;;;;;;4988986;28;20113;-68
2024/02/27 02:26:32;;;;;;;9.25;4.13;;;7.90;99.90;;;;;;4989518;28;20054;-68
2024/02/27 02:28:58;;;;;;;6.82;4.15;;;7.90;99.90;;;;;;5009675;28;20116;-68
2024/02/27 02:31:24;;;;;;;8.93;4.85;;;7.90;99.90;;;;;;5001741;28;20272;-68
2024/02/27 02:33:49;;;;;;;11.68;4.80;;;7.80;99.90;;;;;;5006285;28;20386;-68
2024/02/27 02:36:15;;;;;;;9.70;5.35;;;7.70;99.90;;;;;;4991382;28;20034;-68
2024/02/27 02:38:41;;;;;;;9.95;4.43;;;7.70;99.90;;;;;;5017114;28;20041;-69
2024/02/27 02:41:07;;;;;;;11.02;5.13;;;7.70;99.90;;;;;;4995550;28;20081;-69
2024/02/27 02:43:33;;;;;;;11.77;5.60;;;7.60;99.90;;;;;;4987616;28;20497;-68
2024/02/27 02:45:58;;;;;;;6.60;4.00;;;7.60;99.90;;;;;;4978094;28;20049;-68
2024/02/27 02:48:24;;;;;;;13.90;5.45;;;7.60;99.90;;;;;;4981739;28;20035;-68
2024/02/27 02:50:50;;;;;;;16.23;6.50;;;7.50;99.90;;;;;;4994366;28;20121;-68
2024/02/27 02:53:16;;;;;;;12.45;5.05;;;7.50;99.90;;;;;;4997333;28;20110;-68
2024/02/27 02:55:42;;;;;;;12.60;4.55;;;7.60;99.90;;;;;;4989994;28;20034;-68
2024/02/27 02:58:11;;;;;;;15.43;5.57;;;7.50;99.90;;;;;;4982162;28;20030;-71
2024/02/27 03:00:37;;;;;;;10.18;6.05;;;7.50;99.90;;;;;;4984407;28;20037;-68
2024/02/27 03:03:04;;;;;;;18.02;6.07;;;7.50;99.90;;;;;;4999513;28;20100;-68
2024/02/27 03:05:29;;;;;;;13.55;5.63;;;7.50;99.90;;;;;;4994463;28;20065;-69
2024/02/27 03:07:55;;;;;;;14.80;5.50;;;7.40;99.90;;;;;;5010966;28;20068;-68
2024/02/27 03:10:21;;;;;;;16.48;6.35;;;7.40;99.90;;;;;;4998356;28;20450;-68
2024/02/27 03:12:47;;;;;;;13.70;7.00;;;7.30;99.90;;;;;;5018134;28;20072;-68
2024/02/27 03:15:13;;;;;;;11.55;5.93;;;7.30;99.90;;;;;;4992781;28;20034;-68
2024/02/27 03:17:39;;;;;;;14.90;6.40;;;7.30;99.90;;;;;;5010062;28;20039;-68
2024/02/27 03:20:09;;;;;;;10.95;5.35;;;7.20;99.90;;;;;;5008989;28;20045;-68
2024/02/27 03:22:35;;;;;;;11.90;6.13;;;7.30;99.90;;;;;;4993581;28;20027;-68
2024/02/27 03:25:05;;;;;;;12.73;6.57;;;7.30;99.90;;;;;;5003531;28;20495;-68
2024/02/27 03:27:34;;;;;;;11.50;5.78;;;7.30;99.90;;;;;;5009477;28;20502;-68
2024/02/27 03:30:00;;;;;;;14.88;6.57;;;7.20;99.90;;;;;;5006968;28;20030;-68
2024/02/27 03:32:26;;;;;;;20.73;5.88;;;7.20;99.90;;;;;;4993222;28;20824;-68
2024/02/27 03:34:52;;;;;;;16.23;7.00;;;7.20;99.90;;;;;;5006853;28;20026;-68
2024/02/27 03:37:18;;;;;;;14.70;5.90;;;7.20;99.90;;;;;;4994855;28;20031;-68
2024/02/27 03:39:44;;;;;;;15.52;6.57;;;7.20;99.90;;;;;;4976732;28;20401;-68
2024/02/27 03:42:10;;;;;;;16.02;7.05;;;7.20;99.90;;;;;;5015375;28;20034;-68
2024/02/27 03:44:36;;;;;;;12.25;5.85;;;7.20;99.90;;;;;;5003704;28;20397;-70
2024/02/27 03:47:03;;;;;;;17.20;6.13;;;7.30;99.90;;;;;;4994421;28;20128;-68
2024/02/27 03:49:28;;;;;;;16.60;7.05;;;7.30;99.90;;;;;;4996955;28;20467;-68
2024/02/27 03:51:54;;;;;;;15.20;6.47;;;7.30;99.90;;;;;;5016589;28;20026;-68
2024/02/27 03:54:20;;;;;;;19.30;8.52;;;7.30;99.90;;;;;;5002773;28;20065;-68
2024/02/27 03:56:46;;;;;;;15.60;7.30;;;7.30;99.90;;;;;;4995534;28;20453;-68
2024/02/27 03:59:11;;;;;;;23.70;9.45;;;7.20;99.90;;;;;;4999025;28;20030;-68
2024/02/27 04:01:38;;;;;;;13.75;7.95;;;7.20;99.90;;;;;;5008757;28;20535;-69
2024/02/27 04:04:04;;;;;;;15.77;6.95;;;7.20;99.90;;;;;;4994004;28;20084;-68
2024/02/27 04:06:30;;;;;;;21.05;8.43;;;7.30;99.90;;;;;;5009322;28;20030;-69
2024/02/27 04:08:56;;;;;;;17.77;7.55;;;7.30;99.90;;;;;;5008416;28;20028;-68
2024/02/27 04:11:22;;;;;;;12.68;7.65;;;7.30;99.90;;;;;;4986123;28;20034;-69
2024/02/27 04:13:47;;;;;;;20.83;7.60;;;7.20;99.90;;;;;;4986391;28;20038;-68
2024/02/27 04:16:13;;;;;;;16.67;7.30;;;7.30;99.90;;;;;;4987868;28;20117;-68
2024/02/27 04:18:39;;;;;;;14.90;6.65;;;7.20;99.90;;;;;;5008220;28;20034;-68
2024/02/27 04:21:05;;;;;;;17.13;8.15;;;7.30;99.90;;;;;;5008990;28;20052;-69
2024/02/27 04:23:30;;;;;;;13.45;6.95;;;7.30;99.90;;;;;;5001234;28;20418;-69
2024/02/27 04:25:56;;;;;;;15.95;7.35;;;7.30;99.90;;;;;;4998462;28;20024;-69
2024/02/27 04:28:22;;;;;;;23.60;8.23;;;7.30;99.90;;;;;;4981343;28;20108;-69
2024/02/27 04:30:48;;;;;;;16.95;7.90;;;7.30;99.90;;;;;;4994002;28;20038;-69
2024/02/27 04:33:13;;;;;;;17.75;8.75;;;7.40;99.90;;;;;;4977156;28;20105;-69
2024/02/27 04:35:39;;;;;;;16.52;7.63;;;7.40;99.90;;;;;;4982847;28;20418;-69
2024/02/27 04:38:05;;;;;;;14.63;7.40;;;7.40;99.90;;;;;;4994001;28;20038;-68
2024/02/27 04:40:30;;;;;;;14.80;6.72;;;7.40;99.90;;;;;;4994638;28;20038;-68
2024/02/27 04:42:56;;;;;;;17.75;8.25;;;7.40;99.90;;;;;;4988970;28;20394;-68
2024/02/27 04:45:22;;;;;;;18.77;6.93;;;7.30;99.90;;;;;;4993095;28;20058;-68
2024/02/27 04:47:47;;;;;;;18.42;7.97;;;7.30;99.90;;;;;;5000464;28;20026;-69
2024/02/27 04:50:13;;;;;;;18.42;7.95;;;7.30;99.90;;;;;;4993458;28;20037;-69
2024/02/27 04:52:39;;;;;;;17.77;7.43;;;7.30;99.90;;;;;;4981344;28;20511;-69
2024/02/27 04:55:05;;;;;;;18.48;8.57;;;7.30;99.90;;;;;;4987962;28;20042;-67
2024/02/27 04:57:31;;;;;;;23.95;8.73;;;7.30;99.90;;;;;;4993128;28;20399;-68
2024/02/27 04:59:57;;;;;;;17.92;9.30;;;7.30;99.90;;;;;;5005926;28;20030;-69
2024/02/27 05:02:23;;;;;;;15.82;8.07;;;7.30;99.90;;;;;;5007191;28;20034;-69
2024/02/27 05:04:48;;;;;;;15.70;7.30;;;7.40;99.90;;;;;;5000690;28;20443;-69
2024/02/27 05:07:14;;;;;;;16.20;8.40;;;7.40;99.90;;;;;;4999475;28;20446;-68
2024/02/27 05:09:40;;;;;;;15.65;9.07;;;7.40;99.90;;;;;;4996767;28;20037;-69
2024/02/27 05:12:06;;;;;;;18.48;8.20;;;7.40;99.90;;;;;;5015888;28;20100;-69
2024/02/27 05:14:32;;;;;;;18.88;7.78;;;7.40;99.90;;;;;;4995050;28;20042;-69
2024/02/27 05:16:57;;;;;;;16.95;7.88;;;7.40;99.90;;;;;;5006982;28;20044;-69
2024/02/27 05:19:23;;;;;;;15.40;8.77;;;7.40;99.90;;;;;;4991546;28;20117;-69
2024/02/27 05:21:49;;;;;;;14.82;7.65;;;7.40;99.90;;;;;;4992298;28;20352;-70
2024/02/27 05:24:14;;;;;;;18.67;9.52;;;7.40;99.90;;;;;;4989522;28;20097;-67
2024/02/27 05:26:40;;;;;;;18.23;7.68;;;7.40;99.90;;;;;;5007037;28;20037;-69
2024/02/27 05:29:06;;;;;;;18.45;8.40;;;7.30;99.90;;;;;;4992196;28;20049;-68
2024/02/27 05:31:32;;;;;;;27.88;11.52;;;7.40;99.90;;;;;;5002887;28;20085;-68
2024/02/27 05:33:59;;;;;;;16.23;8.60;;;7.30;99.90;;;;;;4989122;28;20038;-68
2024/02/27 05:36:27;;;;;;;20.65;10.57;;;7.30;99.90;;;;;;5002182;28;20732;-68
2024/02/27 05:38:53;;;;;;;19.38;10.02;;;7.40;99.90;;;;;;5000075;28;20115;-68
2024/02/27 05:41:20;;;;;;;14.93;7.30;;;7.40;99.90;;;;;;5006314;28;20042;-68
2024/02/27 05:43:47;;;;;;;14.43;7.35;;;7.40;99.90;;;;;;4989172;28;20089;-68
2024/02/27 05:46:13;;;;;;;16.08;7.88;;;7.40;99.90;;;;;;4988426;28;20042;-67
2024/02/27 05:48:41;;;;;;;21.52;8.55;;;7.40;99.90;;;;;;5006844;28;20034;-68
2024/02/27 05:51:08;;;;;;;14.32;7.50;;;7.40;99.90;;;;;;5002964;28;20030;-68
2024/02/27 05:53:36;;;;;;;17.42;7.65;;;7.40;99.90;;;;;;4990525;28;20410;-68
2024/02/27 05:56:03;;;;;;;25.58;9.85;;;7.30;99.90;;;;;;5003873;28;20079;-68
2024/02/27 05:58:29;;;;;;;17.00;7.15;;;7.30;99.90;;;;;;5002343;28;20113;-69
2024/02/27 06:00:56;;;;;;;20.65;9.13;;;7.30;99.90;;;;;;4997280;28;20042;-69
2024/02/27 06:03:24;;;;;;;23.48;8.20;;;7.40;99.90;;;;;;4968772;28;20034;-69
2024/02/27 06:05:51;;;;;;;15.63;7.60;;;7.30;99.90;;;;;;4995955;28;20058;-69
2024/02/27 06:08:17;;;;;;;16.52;8.05;;;7.30;99.90;;;;;;4976391;28;20027;-70
2024/02/27 06:10:43;;;;;;;21.50;8.18;;;7.30;99.90;;;;;;4984951;28;20081;-69
2024/02/27 06:13:10;;;;;;;14.77;7.63;;;7.30;99.90;;;;;;4983651;28;20046;-70
2024/02/27 06:15:36;;;;;;;16.23;7.57;;;7.20;99.90;;;;;;4985505;28;20061;-69
2024/02/27 06:18:03;;;;;;;17.67;8.65;;;7.20;99.90;;;;;;5001013;28;20557;-69
2024/02/27 06:23:14;;;;;;;17.13;7.60;;;7.20;99.90;;;;;;4989649;28;20096;-70
2024/02/27 06:25:40;;;;;;;22.27;9.80;;;7.10;99.90;;;;;;4991266;28;20451;-70
2024/02/27 06:28:05;;;;;;;19.70;7.97;;;7.10;99.90;;;;;;4988124;28;20548;-70
2024/02/27 06:30:31;;;;;;;16.55;7.63;;;7.10;99.90;;;;;;4986583;28;20058;-70
2024/02/27 06:32:57;;;;;;;17.92;8.30;;;7.00;99.90;;;;;;4988444;28;20037;-70
2024/02/27 06:35:24;;;;;;;19.85;8.02;;;7.00;99.90;;;;;;5010605;28;20049;-69
2024/02/27 06:37:50;;;;;;;12.93;7.57;;;6.80;99.90;;;;;;5005147;28;20305;-69
2024/02/27 06:40:16;;;;;;;14.73;7.55;;;6.80;99.90;;;;;;4995656;28;20410;-68
2024/02/27 06:42:43;;;;;;;16.77;8.88;;;6.70;99.90;;;;;;5004046;28;20483;-69
2024/02/27 06:45:12;;;;;;;15.82;7.78;;;6.70;99.90;;;;;;4994241;28;20391;-69
2024/02/27 06:47:40;;;;;;;18.88;8.77;;;6.70;99.90;;;;;;5005279;28;20053;-69
2024/02/27 06:50:07;;;;;;;17.13;7.53;;;6.70;99.90;;;;;;4990522;28;20041;-67
2024/02/27 06:52:33;;;;;;;14.38;7.18;;;6.70;99.90;;;;;;5005416;28;20045;-67
2024/02/27 06:54:59;;;;;;;15.77;7.45;;;6.70;99.90;;;;;;4997989;28;20113;-69
2024/02/27 06:57:25;;;;;;;18.15;8.65;;;6.80;99.90;;;;;;4985476;28;20037;-68
2024/02/27 06:59:50;;;;;;;19.48;8.45;;;6.80;99.90;;;;;;4986819;28;20038;-69
2024/02/27 07:02:16;;;;;;;19.33;8.00;;;6.70;99.90;;;;;;4981139;28;20061;-67
2024/02/27 07:04:42;;;;;;;18.48;7.22;;;6.70;99.90;;;;;;4984539;28;20422;-68
2024/02/27 07:07:08;;;;;;;13.70;7.50;;;6.70;99.90;;;;;;4989518;28;20034;-68
2024/02/27 07:09:34;;;;;;;16.20;8.50;;;6.70;99.90;;;;;;4985872;28;20081;-67
2024/02/27 07:12:00;;;;;;;30.27;7.30;;;6.70;99.90;;;;;;4986776;28;20030;-68
2024/02/27 07:14:32;;;;;;;14.52;7.38;;;6.70;99.90;;;;;;4995233;28;20033;-68
2024/02/27 07:16:59;;;;;;;18.25;8.13;;;6.60;99.90;;;;;;4997231;23;20034;-51
2024/02/27 07:19:26;;;;;;;14.68;6.45;;;6.80;99.90;;;;;;5000330;28;20042;-49
2024/02/27 07:21:52;;;;;;;25.40;8.75;;;6.80;99.90;;;;;;4993941;28;20023;-53
2024/02/27 07:24:19;;;;;;;18.13;7.20;;;6.80;99.90;;;;;;4990286;28;20495;-53
2024/02/27 07:26:45;;;;;;;15.18;6.68;;;6.80;99.90;;;;;;4995970;28;20042;-53
2024/02/27 07:29:13;;;;;;;18.33;7.85;;;6.90;99.90;;;;;;4990162;28;20037;-52
2024/02/27 07:31:39;;;;;;;16.52;7.88;;;6.90;99.90;;;;;;4988235;28;20031;-67
2024/02/27 07:34:05;;;;;;;15.98;8.63;;;7.00;99.90;;;;;;5004568;28;20662;-67
2024/02/27 07:36:31;;;;;;;16.02;8.90;;;6.90;99.90;;;;;;5003872;28;20100;-67
2024/02/27 07:38:57;;;;;;;22.52;8.85;;;6.80;99.90;;;;;;4988874;28;20026;-67
2024/02/27 07:41:23;;;;;;;18.77;7.70;;;6.70;99.90;;;;;;5005523;28;20054;-70
2024/02/27 07:43:48;;;;;;;16.10;7.25;;;6.70;99.90;;;;;;5003906;28;20589;-67
2024/02/27 07:46:17;;;;;;;16.67;7.35;;;6.70;99.90;;;;;;4979346;28;20961;-69
2024/02/27 07:48:46;;;;;;;16.55;8.25;;;6.80;99.90;;;;;;4989042;28;20112;-67
2024/02/27 07:51:32;;;;;;;18.42;7.43;;;6.70;99.90;;;;;;4985496;28;20037;-67
2024/02/27 07:53:59;;;;;;;17.42;6.65;;;6.70;99.90;;;;;;5003383;28;20092;-68
2024/02/27 07:56:27;;;;;;;23.75;8.73;;;6.70;99.90;;;;;;5000603;28;20030;-67
2024/02/27 07:58:56;;;;;;;15.77;7.50;;;6.70;99.90;;;;;;4997120;28;20041;-68
2024/02/27 08:01:21;;;;;;;15.65;7.70;;;6.70;99.90;;;;;;4999915;28;20065;-68
2024/02/27 08:03:47;;;;;;;15.77;7.65;;;6.80;99.90;;;;;;4993262;28;20034;-68
2024/02/27 08:06:13;;;;;;;15.85;6.80;;;6.80;99.90;;;;;;4985866;28;20491;-68
2024/02/27 08:08:39;;;;;;;17.20;9.32;;;6.80;99.90;;;;;;4982511;28;20444;-68
2024/02/27 08:11:06;;;;;;;20.75;8.82;;;6.80;99.90;;;;;;4983249;28;20030;-68
2024/02/27 08:13:32;;;;;;;16.50;9.27;;;6.90;99.90;;;;;;4993466;28;20030;-68
2024/02/27 08:15:58;;;;;;;12.48;6.93;;;6.90;99.90;;;;;;4988086;28;20430;-68
2024/02/27 08:18:24;;;;;;;19.30;8.98;;;7.00;99.90;;;;;;4993588;28;20042;-69
2024/02/27 08:20:50;;;;;;;16.48;7.00;;;7.10;99.90;;;;;;4980170;28;20406;-68
2024/02/27 08:23:17;;;;;;;25.83;8.35;;;7.20;99.90;;;;;;4993398;28;20042;-67
2024/02/27 08:25:43;;;;;;;13.43;7.10;;;7.20;99.90;;;;;;4988903;28;20030;-68
2024/02/27 08:28:09;;;;;;;16.23;8.55;;;7.30;99.90;;;;;;4979253;28;20035;-68
2024/02/27 08:30:34;;;;;;;16.98;7.75;;;7.40;99.90;;;;;;5006402;28;20030;-68
2024/02/27 08:33:00;;;;;;;14.02;7.63;;;7.40;99.90;;;;;;4989833;28;20049;-68
2024/02/27 08:35:26;;;;;;;16.13;8.18;;;7.60;99.90;;;;;;5005062;28;20033;-68
2024/02/27 08:37:52;;;;;;;15.50;7.28;;;7.60;99.90;;;;;;5006819;28;20030;-68
2024/02/27 08:40:19;;;;;;;12.40;6.80;;;7.70;99.90;;;;;;5004019;28;20114;-68
2024/02/27 08:42:45;;;;;;;14.70;6.32;;;7.80;99.90;;;;;;5007419;28;20045;-68
2024/02/27 08:45:11;;;;;;;13.90;7.85;;;7.80;99.90;;;;;;4986764;28;20038;-68
2024/02/27 08:47:36;;;;;;;16.52;7.85;;;7.80;99.90;;;;;;4991959;28;20027;-68
2024/02/27 08:50:06;;;;;;;19.92;8.25;;;7.80;99.90;;;;;;4987837;28;20493;-68
2024/02/27 08:52:32;;;;;;;20.52;8.82;;;8.00;99.90;;;;;;4999899;28;20037;-68
2024/02/27 08:54:58;;;;;;;16.77;7.78;;;8.10;99.90;;;;;;5002683;28;20507;-68
2024/02/27 08:57:27;;;;;;;14.85;7.90;;;8.20;99.90;;;;;;4993522;28;20038;-68
2024/02/27 08:59:53;;;;;;;12.85;5.65;;;8.30;99.90;;;;;;4985599;28;20027;-68
2024/02/27 09:02:18;;;;;;;12.88;5.75;;;8.30;99.90;;;;;;4993367;28;20179;-68
2024/02/27 09:04:44;;;;;;;19.83;7.57;;;8.40;99.90;;;;;;4987141;28;20552;-68
2024/02/27 09:07:11;;;;;;;17.15;7.30;;;8.60;99.90;;;;;;4992972;28;20050;-68
2024/02/27 09:09:39;;;;;;;15.55;7.30;;;8.70;99.90;;;;;;4992159;28;20033;-68
2024/02/27 09:12:06;;;;;;;14.45;6.43;;;8.80;99.90;;;;;;4992934;28;20038;-68
2024/02/27 09:14:32;;;;;;;20.15;6.72;;;8.90;99.90;;;;;;4968135;28;20088;-68
2024/02/27 09:16:58;;;;;;;12.48;6.30;;;9.00;99.90;;;;;;5007757;28;20026;-69
2024/02/27 09:19:26;;;;;;;13.07;6.00;;;9.10;99.90;;;;;;4987602;28;20113;-68
2024/02/27 09:21:53;;;;;;;18.35;6.30;;;9.10;99.90;;;;;;4994712;28;20037;-68
2024/02/27 09:24:19;;;;;;;11.55;5.68;;;9.30;99.90;;;;;;4987022;28;20054;-68
2024/02/27 09:26:46;;;;;;;14.25;6.40;;;9.60;99.90;;;;;;4991290;28;20144;-68
2024/02/27 09:29:13;;;;;;;15.38;6.70;;;9.70;99.90;;;;;;4995902;28;20038;-68
2024/02/27 09:31:39;;;;;;;12.88;6.50;;;9.90;99.90;;;;;;5006100;28;20034;-68
2024/02/27 09:34:09;;;;;;;17.45;6.80;;;10.10;99.90;;;;;;4987262;28;20034;-68
2024/02/27 09:36:35;;;;;;;15.32;6.68;;;10.30;99.90;;;;;;5007599;28;20471;-68
2024/02/27 09:39:00;;;;;;;12.88;5.90;;;10.30;99.90;;;;;;5001774;28;20048;-68
2024/02/27 09:41:54;;;;;;;19.48;6.55;;;10.40;99.90;;;;;;4991003;28;20030;-68
2024/02/27 09:44:20;;;;;;;13.60;6.80;;;10.50;99.90;;;;;;4991423;28;20038;-68
2024/02/27 09:46:49;;;;;;;12.88;5.95;;;10.50;99.90;;;;;;4991197;28;20553;-68
2024/02/27 09:49:17;;;;;;;11.15;5.72;;;10.60;99.90;;;;;;4990187;28;20035;-69
2024/02/27 09:51:43;;;;;;;13.55;6.45;;;10.70;99.90;;;;;;4991002;28;20057;-68
2024/02/27 09:54:10;;;;;;;11.35;5.68;;;10.70;99.90;;;;;;4990519;28;20042;-68
2024/02/27 09:56:36;;;;;;;9.85;5.32;;;10.60;99.90;;;;;;4985290;28;20096;-68
2024/02/27 09:59:05;;;;;;;12.30;5.32;;;10.80;99.90;;;;;;4990587;28;20439;-69
2024/02/27 10:01:34;;;;;;;11.50;4.97;;;10.90;99.90;;;;;;4990891;28;20045;-68
2024/02/27 10:04:01;;;;;;;11.10;5.72;;;11.10;99.90;;;;;;4990052;28;20042;-68
2024/02/27 10:06:33;;;;;;;13.10;6.15;;;11.50;99.90;;;;;;5007076;28;20029;-68
2024/02/27 10:09:03;;;;;;;8.88;4.95;;;11.70;99.90;;;;;;4990354;28;20034;-67
2024/02/27 10:11:29;;;;;;;7.88;4.35;;;11.60;99.90;;;;;;4990989;28;20026;-68
2024/02/27 10:13:55;;;;;;;10.48;5.63;;;11.50;99.90;;;;;;4990999;28;20856;-69
2024/02/27 10:16:23;;;;;;;11.75;5.60;;;11.40;99.90;;;;;;4998983;28;20088;-69
2024/02/27 10:18:52;;;;;;;22.23;5.85;;;11.40;99.90;;;;;;4991352;28;20076;-68
2024/02/27 10:21:19;;;;;;;15.63;5.88;;;11.20;99.90;;;;;;5007014;28;20045;-68
2024/02/27 10:23:46;;;;;;;13.75;6.05;;;11.10;99.90;;;;;;4990724;28;20098;-68
2024/02/27 10:26:12;;;;;;;14.88;5.97;;;11.60;99.90;;;;;;4998681;28;20092;-69
2024/02/27 10:28:39;;;;;;;13.27;6.35;;;12.00;99.90;;;;;;4990236;28;20026;-69
2024/02/27 10:31:09;;;;;;;10.90;4.03;;;12.20;99.90;;;;;;4977415;28;20054;-69
2024/02/27 10:33:38;;;;;;;13.52;5.22;;;12.10;99.90;;;;;;4985510;28;20039;-69
2024/02/27 10:36:06;;;;;;;12.07;5.38;;;12.30;99.90;;;;;;4995099;28;20058;-69
2024/02/27 10:38:32;;;;;;;11.93;5.43;;;12.20;99.90;;;;;;4992458;28;20035;-69
2024/02/27 10:40:59;;;;;;;11.98;5.97;;;12.60;99.90;;;;;;5004069;28;20057;-69
2024/02/27 10:43:26;;;;;;;11.32;5.40;;;12.70;99.90;;;;;;4966473;28;20216;-70
2024/02/27 10:45:54;;;;;;;7.97;4.88;;;12.70;99.90;;;;;;4998136;28;20026;-69
2024/02/27 10:48:20;;;;;;;16.45;5.38;;;12.90;99.90;;;;;;4990955;28;20041;-69
2024/02/27 10:50:49;;;;;;;13.05;5.05;;;13.10;99.90;;;;;;4989886;28;20133;-69
2024/02/27 10:53:18;;;;;;;9.05;4.55;;;13.40;99.90;;;;;;4989428;28;20104;-69
2024/02/27 10:55:47;;;;;;;12.73;6.22;;;13.70;99.90;;;;;;4989757;28;20034;-69
2024/02/27 10:58:14;;;;;;;10.43;4.55;;;13.20;99.90;;;;;;4989416;28;20030;-69
2024/02/27 11:00:41;;;;;;;9.88;4.97;;;12.90;99.90;;;;;;4991480;28;20031;-69
2024/02/27 11:03:13;;;;;;;8.48;4.28;;;13.30;99.90;;;;;;5008914;28;20101;-69
2024/02/27 11:05:45;;;;;;;9.95;5.15;;;13.90;99.90;;;;;;4993224;28;20474;-69
2024/02/27 11:08:13;;;;;;;7.75;4.88;;;14.50;99.90;;;;;;5009102;28;20468;-69
2024/02/27 11:10:39;;;;;;;13.20;5.45;;;15.10;99.90;;;;;;4993751;28;20085;-70
2024/02/27 11:13:08;;;;;;;11.73;5.75;;;15.50;98.60;;;;;;4992327;28;20482;-70
2024/02/27 11:15:37;;;;;;;9.82;4.63;;;15.40;97.90;;;;;;5009011;28;20446;-67
2024/02/27 11:18:06;;;;;;;10.52;4.45;;;15.90;97.40;;;;;;4992632;28;20057;-68
2024/02/27 11:20:33;;;;;;;11.65;5.13;;;15.80;97.00;;;;;;5009486;28;20493;-69
2024/02/27 11:22:59;;;;;;;11.00;4.93;;;14.80;98.80;;;;;;4992349;28;20038;-68
2024/02/27 11:25:25;;;;;;;10.65;5.10;;;16.10;97.10;;;;;;5002865;28;20454;-68
2024/02/27 11:27:54;;;;;;;12.13;5.88;;;16.60;94.90;;;;;;4999609;28;20117;-68
2024/02/27 11:30:22;;;;;;;9.93;4.07;;;16.60;93.10;;;;;;4993414;28;20035;-68
2024/02/27 11:32:48;;;;;;;8.50;4.47;;;16.60;94.00;;;;;;5008234;28;20394;-68
2024/02/27 11:35:16;;;;;;;12.77;4.75;;;17.50;94.40;;;;;;4994346;28;20030;-68
2024/02/27 11:37:43;;;;;;;7.70;4.32;;;17.50;91.80;;;;;;4993619;28;20109;-67
2024/02/27 11:40:12;;;;;;;14.80;5.75;;;18.70;89.30;;;;;;5004705;28;20488;-68
2024/02/27 11:42:41;;;;;;;11.15;4.72;;;19.10;87.10;;;;;;5004599;28;20488;-68
2024/02/27 11:45:25;;;;;;;7.90;4.07;;;18.20;89.00;;;;;;4990533;28;20452;-68
2024/02/27 11:47:52;;;;;;;9.48;4.28;;;19.80;87.20;;;;;;5008633;28;20026;-68
2024/02/27 11:50:39;;;;;;;7.03;3.88;;;20.10;79.40;;;;;;5008729;28;20434;-69
2024/02/27 11:53:16;;;;;;;8.63;5.05;;;20.60;78.60;;;;;;4997818;28;20041;-68
2024/02/27 11:55:56;;;;;;;11.82;4.75;;;21.10;79.20;;;;;;5001025;28;20030;-68
2024/02/27 11:58:22;;;;;;;12.43;4.65;;;22.40;75.00;;;;;;5015074;28;20037;-68
2024/02/27 12:00:50;;;;;;;11.23;4.53;;;19.70;73.20;;;;;;4994884;28;20042;-68
2024/02/27 12:03:17;;;;;;;12.95;4.88;;;18.50;80.60;;;;;;5000494;28;20092;-68
2024/02/27 12:05:43;;;;;;;9.70;4.72;;;19.40;79.30;;;;;;4991152;28;20494;-69
2024/02/27 12:08:09;;;;;;;16.73;4.93;;;19.10;79.00;;;;;;5008854;28;20061;-67
2024/02/27 12:10:35;;;;;;;9.82;5.13;;;18.50;80.00;;;;;;5006617;28;20084;-68
2024/02/27 12:13:01;;;;;;;10.43;4.78;;;17.70;82.60;;;;;;5012316;28;20034;-68
2024/02/27 12:15:27;;;;;;;11.68;5.22;;;17.70;85.90;;;;;;4997171;28;20116;-68
2024/02/27 12:17:53;;;;;;;10.20;4.50;;;18.20;83.50;;;;;;4993225;28;20049;-67
2024/02/27 12:20:19;;;;;;;11.55;5.05;;;18.10;83.00;;;;;;4988195;28;20039;-69
2024/02/27 12:22:46;;;;;;;10.70;4.30;;;18.00;81.40;;;;;;5007646;28;20131;-68
2024/02/27 12:25:15;;;;;;;10.68;4.70;;;18.00;84.30;;;;;;4987409;28;20073;-68
2024/02/27 12:27:42;;;;;;;11.20;4.45;;;19.40;80.70;;;;;;4990697;28;20395;-69
2024/02/27 12:30:13;;;;;;;11.27;4.70;;;20.30;78.00;;;;;;5004513;28;20093;-68
2024/02/27 12:32:40;;;;;;;10.13;4.43;;;20.00;76.50;;;;;;4991169;28;20046;-69
2024/02/27 12:35:11;;;;;;;13.75;5.25;;;17.20;82.70;;;;;;5012920;28;20117;-70
2024/02/27 12:37:48;;;;;;;9.63;4.65;;;16.20;87.80;;;;;;4990878;28;20029;-68
2024/02/27 12:40:21;;;;;;;8.30;3.85;;;16.80;87.50;;;;;;4989084;28;20045;-69
2024/02/27 12:42:54;;;;;;;10.15;5.40;;;16.50;90.00;;;;;;5007792;28;20121;-68
2024/02/27 12:45:20;;;;;;;9.85;4.72;;;16.80;90.40;;;;;;4986989;28;20699;-68
2024/02/27 12:47:48;;;;;;;9.20;4.50;;;15.90;90.50;;;;;;4991181;28;20026;-68
2024/02/27 12:50:19;;;;;;;10.48;4.97;;;17.00;89.50;;;;;;4988359;28;20476;-68
2024/02/27 12:52:48;;;;;;;15.68;5.82;;;16.90;88.90;;;;;;4997073;28;20031;-68
2024/02/27 12:55:15;;;;;;;12.52;4.78;;;15.70;91.50;;;;;;5003379;28;20101;-68
2024/02/27 12:57:42;;;;;;;9.23;5.05;;;15.80;92.00;;;;;;5006577;28;20411;-68
2024/02/27 13:00:11;;;;;;;11.00;4.85;;;16.00;92.40;;;;;;4994498;28;20027;-69
2024/02/27 13:02:37;;;;;;;12.43;5.15;;;15.80;92.20;;;;;;4990041;28;20061;-68
2024/02/27 13:05:07;;;;;;;8.38;4.28;;;15.50;92.50;;;;;;4990023;28;20042;-68
2024/02/27 13:07:36;;;;;;;10.70;4.70;;;15.80;92.30;;;;;;4982183;28;20114;-69
2024/02/27 13:10:02;;;;;;;8.88;4.60;;;15.80;92.90;;;;;;4988242;28;20476;-69
2024/02/27 13:12:28;;;;;;;15.02;5.10;;;15.40;92.90;;;;;;4989723;28;20053;-69
2024/02/27 13:14:54;;;;;;;14.55;5.10;;;15.50;93.80;;;;;;4990681;28;20463;-69
2024/02/27 13:17:19;;;;;;;12.98;5.30;;;16.20;92.40;;;;;;5001738;23;20061;-70
2024/02/27 13:19:45;;;;;;;10.25;4.30;;;16.50;91.50;;;;;;4996903;28;20494;-70
2024/02/27 13:22:11;;;;;;;12.27;5.43;;;15.70;92.10;;;;;;5005305;28;20026;-70